Time;durP1;ratioP1;P1;durP2;ratioP2;P2;SDS_P1;SDS_P2;PMS_P1;PMS_P2;Temp;Humidity;BMP_temperature;BMP_pressure;BME280_temperature;BME280_humidity;BME280_pressure;Samples;Min_cycle;Max_cycle;Signal;HPM_P1;HPM_P2
2022/04/27 00:01:31;;;;;;;2.00;1.90;;;23.40;60.00;;;;;;5033909;28;20930;-79
2022/04/27 00:04:00;;;;;;;3.33;2.00;;;23.40;60.00;;;;;;5034115;28;20801;-79
2022/04/27 00:06:26;;;;;;;2.00;1.80;;;23.40;60.00;;;;;;5033753;28;20483;-79
2022/04/27 00:08:53;;;;;;;2.30;2.20;;;23.40;60.00;;;;;;5033532;28;20499;-79
2022/04/27 00:11:20;;;;;;;1.80;1.70;;;23.40;60.00;;;;;;5033825;28;20447;-79
2022/04/27 00:13:47;;;;;;;2.67;1.97;;;23.40;60.00;;;;;;5033876;28;20438;-79
2022/04/27 00:16:14;;;;;;;2.03;1.47;;;23.40;60.00;;;;;;5034003;28;20443;-80
2022/04/27 00:18:41;;;;;;;1.90;1.70;;;23.40;59.90;;;;;;5033933;28;20438;-79
2022/04/27 00:21:09;;;;;;;5.00;1.87;;;23.40;59.90;;;;;;5033680;28;20450;-79
2022/04/27 00:23:35;;;;;;;1.60;1.50;;;23.40;59.90;;;;;;5033721;28;20446;-79
2022/04/27 00:26:02;;;;;;;1.90;1.60;;;23.40;59.90;;;;;;5033656;28;20545;-79
2022/04/27 00:28:29;;;;;;;2.00;1.90;;;23.40;59.90;;;;;;5033350;28;20486;-79
2022/04/27 00:30:56;;;;;;;1.87;1.67;;;23.40;59.90;;;;;;5033629;28;20447;-79
2022/04/27 00:33:23;;;;;;;2.20;2.00;;;23.40;59.90;;;;;;5033606;28;20445;-79
2022/04/27 00:35:50;;;;;;;2.53;2.33;;;23.40;59.80;;;;;;5033464;28;20517;-79
2022/04/27 00:38:18;;;;;;;2.20;1.67;;;23.40;59.90;;;;;;5033458;28;20439;-79
2022/04/27 00:40:45;;;;;;;2.27;2.07;;;23.40;59.90;;;;;;5033551;28;20442;-79
2022/04/27 00:43:14;;;;;;;1.83;1.73;;;23.40;59.90;;;;;;5033576;28;20774;-79
2022/04/27 00:45:41;;;;;;;1.93;1.67;;;23.40;59.80;;;;;;5033328;28;20442;-80
2022/04/27 00:48:09;;;;;;;2.30;2.10;;;23.40;59.80;;;;;;5033350;28;20486;-79
2022/04/27 00:50:36;;;;;;;2.10;1.90;;;23.40;59.80;;;;;;5033232;28;20534;-79
2022/04/27 00:53:03;;;;;;;2.03;1.90;;;23.40;59.70;;;;;;5033309;28;20469;-79
2022/04/27 00:55:31;;;;;;;1.60;1.43;;;23.40;59.70;;;;;;5033205;28;20446;-79
2022/04/27 00:57:59;;;;;;;2.10;2.00;;;23.40;59.70;;;;;;5033298;28;20968;-79
2022/04/27 01:00:26;;;;;;;2.00;1.80;;;23.40;59.70;;;;;;5033300;28;20470;-79
2022/04/27 01:02:53;;;;;;;1.83;1.73;;;23.40;59.70;;;;;;5033243;28;20439;-79
2022/04/27 01:05:21;;;;;;;1.70;1.60;;;23.40;59.70;;;;;;5033123;28;20450;-79
2022/04/27 01:07:48;;;;;;;1.77;1.67;;;23.30;59.60;;;;;;5032753;28;20481;-79
2022/04/27 01:10:14;;;;;;;2.13;1.93;;;23.40;59.70;;;;;;5033244;28;20462;-79
2022/04/27 01:12:42;;;;;;;1.63;1.43;;;23.30;59.60;;;;;;5033333;28;20447;-79
2022/04/27 01:15:10;;;;;;;2.73;1.90;;;23.40;59.70;;;;;;5032943;28;20442;-79
2022/04/27 01:17:37;;;;;;;1.80;1.70;;;23.40;59.60;;;;;;5033302;28;20793;-79
2022/04/27 01:20:05;;;;;;;1.93;1.83;;;23.30;59.60;;;;;;5032985;28;20449;-79
2022/04/27 01:22:34;;;;;;;1.80;1.70;;;23.30;59.60;;;;;;5033068;28;20492;-79
2022/04/27 01:25:00;;;;;;;2.10;1.80;;;23.30;59.60;;;;;;5033035;28;20452;-79
2022/04/27 01:27:27;;;;;;;1.83;1.47;;;23.40;59.70;;;;;;5032765;28;20898;-79
2022/04/27 01:29:54;;;;;;;1.70;1.60;;;23.30;59.60;;;;;;5032894;28;20492;-79
2022/04/27 01:32:21;;;;;;;1.50;1.40;;;23.40;59.60;;;;;;5032942;28;20449;-79
2022/04/27 01:34:48;;;;;;;1.60;1.50;;;23.30;59.50;;;;;;5015462;28;20457;-79
2022/04/27 01:40:00;;;;;;;1.60;1.50;;;23.40;59.50;;;;;;5033132;28;20442;-79
2022/04/27 01:42:27;;;;;;;1.53;1.43;;;23.30;59.50;;;;;;5032829;28;20952;-79
2022/04/27 01:44:54;;;;;;;1.60;1.50;;;23.30;59.50;;;;;;5032890;28;20457;-79
2022/04/27 01:47:20;;;;;;;2.00;1.90;;;23.30;59.50;;;;;;5032736;28;20446;-79
2022/04/27 01:49:47;;;;;;;1.70;1.60;;;23.30;59.50;;;;;;5032972;28;20489;-79
2022/04/27 01:55:00;;;;;;;2.30;2.10;;;23.30;59.50;;;;;;5033082;28;20422;-79
2022/04/27 01:57:27;;;;;;;2.33;1.40;;;23.30;59.40;;;;;;5032624;28;20465;-79
2022/04/27 01:59:54;;;;;;;1.37;1.27;;;23.30;59.40;;;;;;5033852;28;20493;-79
2022/04/27 02:02:21;;;;;;;1.80;1.70;;;23.30;59.40;;;;;;5036345;28;20811;-79
2022/04/27 02:04:48;;;;;;;1.73;1.57;;;23.30;59.40;;;;;;5036522;28;20442;-79
2022/04/27 02:07:15;;;;;;;2.17;2.07;;;23.30;59.40;;;;;;5036214;28;20442;-79
2022/04/27 02:09:42;;;;;;;1.70;1.60;;;23.30;59.30;;;;;;5036006;28;20493;-79
2022/04/27 02:12:10;;;;;;;1.60;1.50;;;23.30;59.40;;;;;;5036191;28;20470;-79
2022/04/27 02:14:37;;;;;;;1.97;1.87;;;23.30;59.40;;;;;;5036103;28;20454;-79
2022/04/27 02:17:04;;;;;;;2.00;1.87;;;23.30;59.30;;;;;;5036181;28;20439;-79
2022/04/27 02:19:32;;;;;;;1.60;1.50;;;23.30;59.30;;;;;;5036151;28;20758;-79
2022/04/27 02:21:59;;;;;;;1.50;1.40;;;23.30;59.30;;;;;;5036012;28;20438;-79
2022/04/27 02:24:26;;;;;;;1.37;1.27;;;23.30;59.20;;;;;;5036038;28;20526;-79
2022/04/27 02:26:54;;;;;;;1.50;1.40;;;23.30;59.30;;;;;;5035530;28;21144;-79
2022/04/27 02:29:22;;;;;;;1.70;1.60;;;23.30;59.30;;;;;;5035968;28;20486;-79
2022/04/27 02:31:49;;;;;;;1.90;1.80;;;23.30;59.20;;;;;;5035850;28;20905;-79
2022/04/27 02:34:16;;;;;;;1.60;1.50;;;23.30;59.20;;;;;;5035575;28;20450;-79
2022/04/27 02:36:43;;;;;;;1.37;1.27;;;23.30;59.20;;;;;;5035599;28;20453;-79
2022/04/27 02:39:10;;;;;;;1.50;1.40;;;23.20;59.10;;;;;;5035861;28;20972;-79
2022/04/27 02:41:37;;;;;;;1.50;1.40;;;23.30;59.20;;;;;;5035811;28;20435;-79
2022/04/27 02:44:04;;;;;;;1.50;1.40;;;23.20;59.10;;;;;;5035695;28;20439;-79
2022/04/27 02:46:32;;;;;;;1.70;1.60;;;23.20;59.10;;;;;;5035391;28;20477;-79
2022/04/27 02:51:49;;;;;;;1.67;1.57;;;23.20;59.00;;;;;;5035574;28;20434;-79
2022/04/27 02:54:16;;;;;;;1.90;1.80;;;23.20;59.10;;;;;;5035491;28;20449;-79
2022/04/27 02:56:43;;;;;;;1.57;1.47;;;23.20;59.10;;;;;;5017614;28;20454;-79
2022/04/27 02:59:10;;;;;;;1.30;1.20;;;23.30;59.10;;;;;;5035265;28;20482;-79
2022/04/27 03:01:38;;;;;;;1.40;1.30;;;23.20;59.10;;;;;;5035358;28;20451;-79
2022/04/27 03:04:05;;;;;;;1.87;1.77;;;23.20;59.00;;;;;;5035120;28;20497;-79
2022/04/27 03:06:32;;;;;;;1.77;1.63;;;23.20;59.00;;;;;;5035073;28;20442;-79
2022/04/27 03:08:59;;;;;;;1.50;1.40;;;23.20;58.90;;;;;;5034828;28;20483;-79
2022/04/27 03:11:25;;;;;;;1.30;1.20;;;23.20;59.00;;;;;;5034162;28;20925;-79
2022/04/27 03:13:52;;;;;;;1.60;1.40;;;23.20;58.90;;;;;;5034890;28;20469;-79
2022/04/27 03:16:19;;;;;;;1.70;1.60;;;23.20;58.90;;;;;;5035019;28;20443;-79
2022/04/27 03:18:47;;;;;;;1.60;1.50;;;23.20;58.90;;;;;;5034952;28;20447;-79
2022/04/27 03:21:14;;;;;;;1.53;1.43;;;23.20;58.90;;;;;;5035066;28;20469;-79
2022/04/27 03:23:41;;;;;;;1.87;1.70;;;23.20;58.90;;;;;;5035056;28;20906;-79
2022/04/27 03:26:07;;;;;;;1.50;1.40;;;23.20;58.90;;;;;;5034605;28;20449;-79
2022/04/27 03:28:34;;;;;;;1.67;1.57;;;23.20;58.90;;;;;;5034836;28;20466;-79
2022/04/27 03:31:01;;;;;;;1.47;1.37;;;23.20;58.90;;;;;;5034837;28;20450;-79
2022/04/27 03:33:28;;;;;;;1.43;1.33;;;23.20;58.80;;;;;;5034637;28;20439;-79
2022/04/27 03:35:56;;;;;;;1.63;1.43;;;23.20;58.80;;;;;;5034639;28;20443;-79
2022/04/27 03:38:23;;;;;;;1.33;1.23;;;23.20;58.80;;;;;;5034797;28;20806;-79
2022/04/27 03:40:50;;;;;;;1.57;1.47;;;23.20;58.90;;;;;;5034640;28;20955;-80
2022/04/27 03:43:20;;;;;;;1.40;1.30;;;23.20;58.80;;;;;;5034495;28;20438;-79
2022/04/27 03:45:47;;;;;;;1.70;1.60;;;23.20;58.80;;;;;;5034682;28;20489;-79
2022/04/27 03:48:13;;;;;;;1.60;1.50;;;23.10;58.70;;;;;;5034408;28;20435;-79
2022/04/27 03:50:40;;;;;;;1.27;1.17;;;23.10;58.70;;;;;;5034452;28;20516;-82
2022/04/27 03:53:09;;;;;;;2.87;2.40;;;23.10;58.70;;;;;;5034552;28;20538;-81
2022/04/27 03:55:36;;;;;;;1.73;1.50;;;23.10;57.80;;;;;;5034173;28;20451;-80
2022/04/27 03:58:04;;;;;;;1.87;1.77;;;23.00;58.20;;;;;;5033806;28;20474;-80
2022/04/27 04:00:31;;;;;;;1.70;1.60;;;23.10;58.60;;;;;;5033948;28;20807;-80
2022/04/27 04:03:00;;;;;;;1.73;1.63;;;23.10;58.90;;;;;;5034099;28;20478;-80
2022/04/27 04:05:27;;;;;;;1.57;1.47;;;23.10;58.90;;;;;;5033963;28;20439;-80
2022/04/27 04:07:54;;;;;;;1.80;1.70;;;23.10;58.90;;;;;;5020734;28;20478;-80
2022/04/27 04:10:22;;;;;;;1.70;1.50;;;23.10;58.90;;;;;;5053925;28;20834;-80
2022/04/27 04:12:49;;;;;;;1.77;1.30;;;23.10;58.80;;;;;;5053927;28;20438;-80
2022/04/27 04:15:16;;;;;;;1.40;1.30;;;23.10;58.90;;;;;;5053665;28;20441;-80
2022/04/27 04:17:45;;;;;;;2.30;1.27;;;23.10;59.00;;;;;;5053696;28;20441;-80
2022/04/27 04:20:13;;;;;;;2.23;1.53;;;23.20;59.00;;;;;;5053771;28;20797;-80
2022/04/27 04:22:40;;;;;;;1.27;1.17;;;23.10;58.90;;;;;;5053375;28;20492;-80
2022/04/27 04:30:38;;;;;;;2.73;1.70;;;23.10;59.00;;;;;;5053694;28;20503;-80
2022/04/27 04:33:05;;;;;;;1.57;1.40;;;23.00;59.10;;;;;;5053678;28;20446;-80
2022/04/27 04:35:32;;;;;;;2.90;1.60;;;23.10;59.30;;;;;;5053562;28;20433;-80
2022/04/27 04:37:59;;;;;;;1.93;1.83;;;23.10;59.10;;;;;;5053316;28;20438;-80
2022/04/27 04:40:26;;;;;;;2.00;1.40;;;23.10;59.10;;;;;;5053439;28;20441;-80
2022/04/27 04:42:54;;;;;;;1.83;1.50;;;23.10;59.10;;;;;;5053450;28;20441;-80
2022/04/27 04:45:20;;;;;;;1.97;1.30;;;23.10;59.10;;;;;;5053427;28;20437;-81
2022/04/27 04:47:47;;;;;;;2.03;1.70;;;23.10;59.00;;;;;;5053490;28;20438;-82
2022/04/27 04:50:14;;;;;;;1.60;1.50;;;23.10;59.00;;;;;;5053349;28;20485;-82
2022/04/27 04:52:41;;;;;;;1.80;1.70;;;23.10;59.10;;;;;;5053190;28;20940;-82
2022/04/27 04:55:09;;;;;;;1.80;1.70;;;23.10;59.10;;;;;;5053318;28;20446;-81
2022/04/27 04:57:36;;;;;;;1.70;1.60;;;23.10;59.10;;;;;;5053122;28;20454;-82
2022/04/27 05:00:05;;;;;;;1.70;1.40;;;23.10;59.10;;;;;;5053039;28;20446;-81
2022/04/27 05:02:32;;;;;;;1.93;1.83;;;23.10;59.00;;;;;;5053635;28;20452;-82
2022/04/27 05:04:59;;;;;;;2.20;1.90;;;23.10;59.10;;;;;;5051826;28;20955;-79
2022/04/27 05:07:26;;;;;;;1.77;1.67;;;23.10;59.30;;;;;;5052445;28;20437;-81
2022/04/27 05:09:53;;;;;;;2.00;1.80;;;23.10;59.20;;;;;;5032716;28;20489;-82
2022/04/27 05:12:19;;;;;;;1.67;1.57;;;23.10;59.20;;;;;;5030917;28;20812;-81
2022/04/27 05:14:46;;;;;;;1.60;1.50;;;23.10;59.10;;;;;;5028438;28;20454;-81
2022/04/27 05:17:15;;;;;;;1.70;1.60;;;23.10;59.00;;;;;;5031914;28;20434;-80
2022/04/27 05:19:41;;;;;;;1.67;1.57;;;23.10;59.10;;;;;;5031851;28;20472;-81
2022/04/27 05:22:08;;;;;;;1.50;1.40;;;23.10;59.50;;;;;;5031667;28;20930;-81
2022/04/27 05:24:35;;;;;;;1.43;1.33;;;23.20;59.10;;;;;;5030859;28;20956;-82
2022/04/27 05:27:02;;;;;;;2.40;1.80;;;23.10;59.00;;;;;;5031116;28;20470;-81
2022/04/27 05:32:15;;;;;;;2.03;1.40;;;23.10;59.00;;;;;;5031391;28;20513;-82
2022/04/27 05:34:42;;;;;;;1.97;1.80;;;23.00;58.90;;;;;;5031639;28;20486;-81
2022/04/27 05:37:09;;;;;;;1.70;1.50;;;23.00;58.90;;;;;;5032179;28;20446;-81
2022/04/27 05:39:35;;;;;;;1.60;1.50;;;23.10;59.00;;;;;;5036003;28;20431;-81
2022/04/27 05:42:02;;;;;;;5.93;1.80;;;23.10;58.90;;;;;;5036101;28;20542;-81
2022/04/27 05:44:29;;;;;;;6.93;2.23;;;23.10;58.90;;;;;;5035889;28;20509;-81
2022/04/27 05:46:56;;;;;;;9.70;1.97;;;23.10;58.90;;;;;;5035924;28;20453;-81
2022/04/27 05:49:25;;;;;;;3.03;1.80;;;23.10;58.90;;;;;;5021893;28;20443;-81
2022/04/27 05:51:52;;;;;;;9.40;2.27;;;23.00;58.90;;;;;;5017039;28;20439;-84
2022/04/27 05:54:19;;;;;;;16.50;3.13;;;23.20;59.10;;;;;;5016813;28;21081;-82
2022/04/27 05:56:46;;;;;;;5.73;2.00;;;23.00;59.30;;;;;;5016504;28;20443;-81
2022/04/27 05:59:13;;;;;;;6.63;2.27;;;23.00;59.40;;;;;;5016643;28;20966;-82
2022/04/27 06:01:40;;;;;;;10.40;2.60;;;22.90;59.50;;;;;;5016591;28;20439;-81
2022/04/27 06:04:07;;;;;;;19.23;2.60;;;23.00;59.50;;;;;;5016636;28;20443;-82
2022/04/27 06:06:35;;;;;;;10.90;3.00;;;23.10;59.60;;;;;;5016492;28;20435;-82
2022/04/27 06:09:02;;;;;;;6.53;2.50;;;23.00;59.70;;;;;;5016168;28;20484;-82
2022/04/27 06:11:30;;;;;;;13.60;3.73;;;23.00;59.70;;;;;;5016337;28;20851;-81
2022/04/27 06:13:57;;;;;;;15.57;3.40;;;23.00;59.90;;;;;;5016322;28;20451;-82
2022/04/27 06:16:24;;;;;;;10.07;3.33;;;23.10;60.10;;;;;;5016261;28;20439;-82
2022/04/27 06:18:51;;;;;;;9.30;2.87;;;23.10;60.40;;;;;;5016180;28;20927;-81
2022/04/27 06:21:18;;;;;;;8.60;2.53;;;23.10;60.40;;;;;;5016464;28;20485;-82
2022/04/27 06:23:46;;;;;;;11.30;2.93;;;23.10;60.60;;;;;;5016442;28;20447;-82
2022/04/27 06:26:14;;;;;;;29.30;4.87;;;23.20;60.70;;;;;;5016268;28;20446;-82
2022/04/27 06:28:41;;;;;;;35.13;5.37;;;23.10;60.60;;;;;;5016397;28;20526;-81
2022/04/27 06:31:07;;;;;;;17.67;4.67;;;23.20;60.90;;;;;;5016066;28;20488;-82
2022/04/27 06:33:34;;;;;;;21.97;5.20;;;23.10;61.00;;;;;;5016115;28;20458;-82
2022/04/27 06:36:01;;;;;;;20.33;4.70;;;23.10;60.60;;;;;;5016229;28;20448;-82
2022/04/27 06:38:28;;;;;;;24.20;4.30;;;23.00;60.60;;;;;;5016118;28;20435;-82
2022/04/27 06:40:56;;;;;;;15.10;4.33;;;23.00;60.70;;;;;;5015989;28;20462;-82
2022/04/27 06:43:23;;;;;;;22.60;4.30;;;23.10;61.00;;;;;;5015917;28;20447;-79
2022/04/27 06:45:50;;;;;;;22.87;4.60;;;23.00;60.90;;;;;;5015665;28;20448;-86
2022/04/27 06:48:16;;;;;;;14.60;3.47;;;23.10;60.90;;;;;;5016038;28;20440;-87
2022/04/27 06:50:43;;;;;;;16.90;3.87;;;23.10;61.20;;;;;;5029157;28;20483;-91
2022/04/27 06:53:10;;;;;;;16.97;4.03;;;23.10;60.70;;;;;;5035949;28;20438;-83
2022/04/27 06:55:38;;;;;;;20.63;4.70;;;23.10;60.60;;;;;;5035354;28;20439;-82
2022/04/27 06:58:06;;;;;;;16.00;4.83;;;23.10;60.50;;;;;;5035264;28;20451;-82
2022/04/27 07:00:33;;;;;;;14.07;3.87;;;23.10;60.60;;;;;;5035072;28;20447;-82
2022/04/27 07:03:00;;;;;;;9.77;3.10;;;23.10;60.60;;;;;;5035302;28;20438;-82
2022/04/27 07:05:28;;;;;;;18.00;3.87;;;23.10;60.50;;;;;;5035279;28;20439;-82
2022/04/27 07:07:55;;;;;;;17.97;3.93;;;23.20;60.60;;;;;;5034936;28;20477;-81
2022/04/27 07:10:22;;;;;;;13.00;3.57;;;23.20;61.00;;;;;;5035233;28;20486;-81
2022/04/27 07:12:48;;;;;;;18.07;4.07;;;23.20;61.20;;;;;;5034769;28;20808;-80
2022/04/27 07:15:17;;;;;;;15.93;3.80;;;23.10;61.10;;;;;;5035104;28;20465;-80
2022/04/27 07:17:45;;;;;;;12.17;4.50;;;23.20;61.90;;;;;;5035129;28;20438;-81
2022/04/27 07:20:12;;;;;;;9.23;3.70;;;23.20;60.70;;;;;;5034410;28;20510;-82
2022/04/27 07:22:39;;;;;;;11.80;3.17;;;23.20;60.30;;;;;;5034922;28;20474;-82
2022/04/27 07:25:07;;;;;;;10.33;3.03;;;23.20;60.20;;;;;;5034730;28;20439;-82
2022/04/27 07:27:34;;;;;;;9.70;2.97;;;23.20;60.10;;;;;;5034890;28;20443;-81
2022/04/27 07:30:01;;;;;;;14.03;5.40;;;23.20;60.00;;;;;;5000972;28;20817;-81
2022/04/27 07:32:29;;;;;;;8.43;2.53;;;23.20;60.00;;;;;;5034644;28;20471;-82
2022/04/27 07:34:55;;;;;;;8.03;3.40;;;23.20;59.90;;;;;;5034623;28;20447;-81
2022/04/27 07:37:22;;;;;;;11.33;3.27;;;23.30;60.00;;;;;;5034426;28;20439;-82
2022/04/27 07:39:49;;;;;;;11.03;3.80;;;23.20;59.90;;;;;;5034698;28;20449;-85
2022/04/27 07:42:16;;;;;;;12.43;3.20;;;23.30;60.00;;;;;;5035207;28;20450;-85
2022/04/27 07:44:43;;;;;;;10.60;3.00;;;23.30;60.00;;;;;;5018044;28;20493;-85
2022/04/27 07:47:13;;;;;;;10.17;3.10;;;23.30;60.00;;;;;;5034497;28;20936;-82
2022/04/27 07:49:41;;;;;;;10.60;3.10;;;23.30;60.00;;;;;;5034387;28;20450;-84
2022/04/27 07:52:08;;;;;;;11.00;3.20;;;23.30;60.00;;;;;;5034761;28;20490;-90
2022/04/27 07:54:35;;;;;;;13.10;2.57;;;23.30;60.00;;;;;;5034529;28;20931;-82
2022/04/27 07:57:02;;;;;;;10.33;3.50;;;23.30;60.00;;;;;;5030334;28;20496;-82
2022/04/27 07:59:29;;;;;;;10.20;2.67;;;23.30;60.00;;;;;;5014147;28;20463;-81
2022/04/27 08:01:56;;;;;;;7.60;3.33;;;23.30;60.90;;;;;;5016474;28;20444;-82
2022/04/27 08:04:23;;;;;;;5.63;2.60;;;23.40;60.10;;;;;;5035054;28;20447;-83
2022/04/27 08:06:51;;;;;;;9.23;3.37;;;23.40;60.30;;;;;;5034465;28;20451;-88
2022/04/27 08:09:18;;;;;;;14.60;3.63;;;23.40;60.30;;;;;;5034425;28;20477;-84
2022/04/27 08:11:45;;;;;;;13.20;2.90;;;23.40;60.40;;;;;;5029720;28;20483;-82
2022/04/27 08:14:12;;;;;;;16.07;5.70;;;23.40;60.40;;;;;;5014358;28;20435;-82
2022/04/27 08:16:39;;;;;;;14.97;5.20;;;23.40;60.60;;;;;;5014561;28;20444;-86
2022/04/27 08:19:06;;;;;;;11.20;4.70;;;23.40;60.80;;;;;;5022426;28;20532;-86
2022/04/27 08:21:32;;;;;;;19.83;5.40;;;23.50;61.00;;;;;;5033958;28;20450;-85
2022/04/27 08:24:03;;;;;;;16.60;5.37;;;23.60;61.30;;;;;;5034168;28;20816;-87
2022/04/27 08:26:30;;;;;;;15.53;5.40;;;23.50;61.30;;;;;;5034457;28;20442;-87
2022/04/27 08:28:57;;;;;;;11.80;4.70;;;23.50;61.30;;;;;;5034461;28;20810;-86
2022/04/27 08:31:24;;;;;;;16.03;5.13;;;23.50;61.40;;;;;;5033908;28;20479;-86
2022/04/27 08:33:51;;;;;;;13.97;5.30;;;23.50;61.50;;;;;;5034049;28;20461;-86
2022/04/27 08:36:17;;;;;;;13.40;5.07;;;23.70;61.70;;;;;;5033677;28;20827;-86
2022/04/27 08:38:44;;;;;;;13.73;5.80;;;23.60;61.60;;;;;;5033690;28;20431;-85
2022/04/27 08:41:12;;;;;;;12.63;3.90;;;23.60;61.60;;;;;;5033687;28;20447;-84
2022/04/27 08:43:39;;;;;;;16.23;5.33;;;23.60;61.70;;;;;;5033484;28;20438;-84
2022/04/27 08:46:06;;;;;;;16.23;6.10;;;23.70;61.80;;;;;;5033647;28;20442;-82
2022/04/27 08:48:33;;;;;;;20.20;4.27;;;23.70;61.90;;;;;;5033789;28;20505;-85
2022/04/27 08:51:02;;;;;;;12.73;5.03;;;23.70;62.00;;;;;;5033630;28;20486;-82
2022/04/27 08:53:29;;;;;;;14.67;4.87;;;23.70;62.20;;;;;;5033432;28;20520;-85
2022/04/27 08:55:56;;;;;;;11.57;4.40;;;23.70;62.00;;;;;;5033866;28;20446;-85
2022/04/27 08:58:25;;;;;;;15.23;3.90;;;23.70;62.00;;;;;;5033521;28;20978;-85
2022/04/27 09:00:52;;;;;;;10.73;3.73;;;23.80;62.10;;;;;;5034479;28;20455;-84
2022/04/27 09:03:27;;;;;;;14.47;4.40;;;23.80;62.00;;;;;;5034107;28;20442;-85
2022/04/27 09:05:55;;;;;;;7.97;3.50;;;23.80;61.60;;;;;;5033505;28;20442;-84
2022/04/27 09:08:25;;;;;;;15.37;4.70;;;23.80;62.10;;;;;;5024242;28;20474;-85
2022/04/27 09:11:12;;;;;;;8.30;3.90;;;23.80;62.30;;;;;;5056244;28;20477;-82
2022/04/27 09:13:40;;;;;;;13.63;4.73;;;23.80;62.40;;;;;;5057707;28;20445;-85
2022/04/27 09:16:08;;;;;;;8.60;3.80;;;23.80;62.70;;;;;;5057458;28;20441;-85
2022/04/27 09:22:01;;;;;;;7.70;3.13;;;24.00;60.90;;;;;;5057133;28;20928;-82
2022/04/27 09:24:29;;;;;;;7.90;3.27;;;24.00;60.20;;;;;;5047245;28;20461;-86
2022/04/27 09:27:03;;;;;;;7.73;2.43;;;23.90;61.20;;;;;;5056910;28;20446;-85
2022/04/27 09:29:32;;;;;;;8.17;3.03;;;24.00;61.80;;;;;;5057439;28;20491;-83
2022/04/27 09:31:59;;;;;;;9.60;3.80;;;24.00;62.30;;;;;;5057215;28;20485;-83
2022/04/27 09:34:29;;;;;;;7.60;3.57;;;24.00;62.80;;;;;;5057424;28;20441;-83
2022/04/27 09:36:56;;;;;;;7.40;2.90;;;24.00;63.10;;;;;;5056976;28;20996;-83
2022/04/27 09:39:25;;;;;;;9.23;2.60;;;24.00;63.40;;;;;;5057081;28;20438;-82
2022/04/27 09:41:52;;;;;;;5.27;2.80;;;24.10;63.70;;;;;;5039014;28;20434;-83
2022/04/27 09:44:29;;;;;;;8.60;4.10;;;24.20;63.80;;;;;;5056734;28;20441;-82
2022/04/27 09:46:57;;;;;;;3.60;2.30;;;24.20;63.80;;;;;;5056155;28;20437;-79
2022/04/27 09:49:25;;;;;;;4.33;2.70;;;24.20;60.90;;;;;;5057016;28;20434;-81
2022/04/27 09:51:52;;;;;;;6.47;2.43;;;24.20;61.00;;;;;;5056842;28;20493;-86
2022/04/27 09:54:24;;;;;;;4.03;2.90;;;24.20;58.20;;;;;;5056575;28;20445;-88
2022/04/27 09:56:54;;;;;;;4.73;3.40;;;24.20;59.40;;;;;;5056970;28;20434;-90
2022/04/27 09:59:22;;;;;;;6.23;2.47;;;24.30;64.30;;;;;;5057759;28;20430;-89
2022/04/27 10:01:50;;;;;;;5.17;2.50;;;24.20;63.40;;;;;;5056807;28;20437;-91
2022/04/27 10:04:21;;;;;;;7.27;2.87;;;24.20;60.20;;;;;;5056926;28;20782;-91
2022/04/27 10:06:51;;;;;;;7.40;3.10;;;24.30;60.50;;;;;;5056955;28;20461;-92
2022/04/27 10:09:17;;;;;;;3.10;2.40;;;24.40;59.60;;;;;;5040841;28;20474;-85
2022/04/27 10:11:44;;;;;;;5.13;2.20;;;24.40;59.30;;;;;;5036501;28;20584;-87
2022/04/27 10:14:12;;;;;;;3.80;2.60;;;24.40;59.00;;;;;;5036529;28;20808;-87
2022/04/27 10:16:39;;;;;;;4.03;2.70;;;24.40;58.90;;;;;;5036671;28;20451;-91
2022/04/27 10:19:10;;;;;;;3.70;2.10;;;24.50;57.90;;;;;;5036342;28;20504;-87
2022/04/27 10:21:43;;;;;;;5.07;2.87;;;24.60;57.80;;;;;;5035749;28;20493;-88
2022/04/27 10:24:10;;;;;;;4.87;2.30;;;24.60;57.70;;;;;;5036408;28;20458;-91
2022/04/27 10:26:38;;;;;;;3.70;2.77;;;24.60;57.40;;;;;;5036077;28;20469;-87
2022/04/27 10:29:06;;;;;;;5.80;2.87;;;24.70;57.40;;;;;;5036387;28;20468;-89
2022/04/27 10:31:58;;;;;;;4.07;2.57;;;24.70;57.50;;;;;;5036019;28;20496;-87
2022/04/27 10:34:26;;;;;;;4.73;2.10;;;24.80;57.40;;;;;;5036048;28;20457;-87
2022/04/27 10:36:55;;;;;;;4.77;2.37;;;24.80;57.60;;;;;;5036161;28;20466;-90
2022/04/27 10:39:23;;;;;;;5.57;3.57;;;24.80;57.50;;;;;;5036139;28;20805;-90
2022/04/27 10:42:14;;;;;;;3.50;2.07;;;24.80;57.50;;;;;;5036031;28;20449;-88
2022/04/27 10:45:07;;;;;;;3.97;2.30;;;24.90;57.60;;;;;;5035373;28;20533;-86
2022/04/27 10:47:41;;;;;;;3.60;2.37;;;25.00;57.50;;;;;;5035603;28;20451;-89
2022/04/27 10:50:33;;;;;;;3.20;2.67;;;24.90;57.50;;;;;;5035611;28;20443;-87
2022/04/27 10:53:19;;;;;;;6.30;2.83;;;25.00;57.50;;;;;;5035739;28;20568;-87
2022/04/27 10:55:54;;;;;;;3.50;2.40;;;25.00;57.50;;;;;;5034812;28;20470;-86
2022/04/27 10:58:35;;;;;;;4.03;3.63;;;25.10;57.50;;;;;;5035146;28;20500;-86
2022/04/27 11:01:18;;;;;;;5.93;3.30;;;25.10;57.10;;;;;;5035263;28;20446;-85
2022/04/27 11:03:54;;;;;;;5.10;3.43;;;25.10;57.30;;;;;;5035343;28;20427;-86
2022/04/27 11:06:21;;;;;;;4.47;3.83;;;25.10;57.60;;;;;;5039118;28;20503;-82
2022/04/27 11:09:18;;;;;;;4.83;4.33;;;25.10;57.30;;;;;;5050083;28;20492;-93
2022/04/27 11:12:04;;;;;;;5.27;3.40;;;25.20;57.10;;;;;;5055614;28;21286;-93
2022/04/27 11:14:34;;;;;;;4.17;3.77;;;25.20;57.00;;;;;;5055954;28;20825;-88
2022/04/27 11:17:01;;;;;;;4.63;3.70;;;25.20;57.10;;;;;;5055844;28;20430;-88
2022/04/27 11:19:35;;;;;;;6.00;5.40;;;25.20;56.70;;;;;;5054569;28;20457;-88
2022/04/27 11:22:12;;;;;;;5.63;4.03;;;25.20;55.90;;;;;;5037299;28;20502;-93
2022/04/27 11:24:42;;;;;;;5.10;4.40;;;25.20;57.00;;;;;;5054266;28;20450;-91
2022/04/27 11:27:09;;;;;;;4.63;3.27;;;25.20;57.70;;;;;;5054206;28;20454;-89
2022/04/27 11:29:38;;;;;;;5.10;4.40;;;25.20;57.60;;;;;;5054271;28;20813;-94
2022/04/27 11:32:07;;;;;;;6.60;3.83;;;25.20;57.70;;;;;;5053443;28;20481;-89
2022/04/27 11:34:34;;;;;;;7.03;4.20;;;25.20;58.40;;;;;;5054290;28;20485;-87
2022/04/27 11:37:14;;;;;;;3.80;3.50;;;25.20;57.50;;;;;;5054633;28;20462;-85
2022/04/27 11:39:43;;;;;;;4.80;4.27;;;25.10;57.00;;;;;;5054993;28;20461;-87
2022/04/27 11:42:12;;;;;;;5.03;3.77;;;25.00;56.90;;;;;;5054721;28;20441;-89
2022/04/27 11:44:40;;;;;;;4.30;3.43;;;25.00;56.80;;;;;;5054962;28;20470;-91
2022/04/27 11:47:26;;;;;;;8.40;4.10;;;25.00;57.50;;;;;;5054171;28;20446;-90
2022/04/27 11:50:00;;;;;;;4.03;3.50;;;24.90;57.20;;;;;;5054938;28;20438;-92
2022/04/27 11:52:27;;;;;;;4.00;3.30;;;24.90;57.00;;;;;;5054614;28;20849;-95
2022/04/27 11:55:01;;;;;;;4.73;3.53;;;24.80;57.80;;;;;;5054754;28;20430;-92
2022/04/27 11:57:28;;;;;;;5.10;3.53;;;24.90;58.40;;;;;;5062170;28;20425;-93
2022/04/27 11:59:57;;;;;;;5.50;3.17;;;24.80;58.30;;;;;;5053547;28;20446;-87
2022/04/27 12:02:26;;;;;;;3.70;3.27;;;24.80;57.80;;;;;;5052821;28;20441;-86
2022/04/27 12:04:58;;;;;;;4.13;3.50;;;24.80;58.40;;;;;;5052654;28;20785;-86
2022/04/27 12:07:24;;;;;;;3.63;3.30;;;24.80;58.80;;;;;;5052670;28;20461;-87
2022/04/27 12:10:00;;;;;;;3.10;2.80;;;24.80;59.80;;;;;;5053088;28;20442;-93
2022/04/27 12:12:28;;;;;;;3.30;3.00;;;24.80;59.20;;;;;;5053412;28;20473;-86
2022/04/27 12:14:57;;;;;;;3.40;3.10;;;24.80;58.40;;;;;;5053298;28;20441;-86
2022/04/27 12:17:57;;;;;;;4.27;2.90;;;24.70;59.40;;;;;;5060074;28;20448;-86
2022/04/27 12:20:34;;;;;;;4.27;3.73;;;24.70;58.20;;;;;;4971927;28;20488;-87
2022/04/27 12:23:02;;;;;;;4.50;2.63;;;24.70;57.60;;;;;;4971593;28;20496;-92
2022/04/27 12:25:42;;;;;;;5.20;2.60;;;24.70;57.70;;;;;;5014168;28;20535;-88
2022/04/27 12:28:15;;;;;;;2.80;2.60;;;24.70;57.80;;;;;;5052887;28;20441;-87
2022/04/27 12:30:50;;;;;;;4.43;2.90;;;24.60;56.70;;;;;;5053111;28;20984;-87
2022/04/27 12:33:18;;;;;;;3.67;2.27;;;24.60;56.80;;;;;;5052655;28;20492;-91
2022/04/27 12:38:31;;;;;;;4.20;2.73;;;24.60;56.50;;;;;;5051748;28;20448;-88
2022/04/27 12:41:00;;;;;;;3.10;2.33;;;24.60;56.00;;;;;;5051931;28;20477;-92
2022/04/27 12:43:28;;;;;;;2.77;2.57;;;24.60;56.20;;;;;;5051419;28;20532;-83
2022/04/27 12:46:06;;;;;;;3.10;2.70;;;24.60;56.20;;;;;;5053316;28;20877;-87
2022/04/27 12:48:35;;;;;;;3.20;2.90;;;24.60;55.50;;;;;;5052923;28;20438;-83
2022/04/27 12:51:03;;;;;;;3.47;2.60;;;24.70;55.40;;;;;;5052655;28;20442;-83
2022/04/27 12:53:30;;;;;;;3.23;2.40;;;24.60;55.20;;;;;;5052595;28;20489;-84
2022/04/27 12:56:10;;;;;;;4.53;4.10;;;24.50;55.60;;;;;;5051953;28;20449;-83
2022/04/27 12:58:38;;;;;;;6.83;4.53;;;24.50;56.40;;;;;;5052299;28;20524;-84
2022/04/27 13:01:05;;;;;;;4.63;4.23;;;24.40;56.10;;;;;;5052294;28;20800;-84
2022/04/27 13:03:33;;;;;;;5.33;3.67;;;24.40;57.20;;;;;;5050557;28;20961;-83
2022/04/27 13:06:00;;;;;;;4.60;2.87;;;24.40;55.80;;;;;;5050596;28;20469;-84
2022/04/27 13:08:27;;;;;;;3.10;2.70;;;24.40;55.60;;;;;;5050825;28;20496;-84
2022/04/27 13:13:40;;;;;;;2.90;2.70;;;24.40;55.30;;;;;;5050732;28;21057;-84
2022/04/27 13:16:07;;;;;;;4.50;3.30;;;24.40;55.30;;;;;;5050518;28;20476;-84
2022/04/27 13:18:34;;;;;;;2.40;2.20;;;24.40;55.50;;;;;;5050930;28;20955;-84